Time;durP1;ratioP1;P1;durP2;ratioP2;P2;SDS_P1;SDS_P2;PMS_P1;PMS_P2;Temp;Humidity;BMP_temperature;BMP_pressure;BME280_temperature;BME280_humidity;BME280_pressure;Samples;Min_cycle;Max_cycle;Signal;HPM_P1;HPM_P2
2023/09/18 00:01:34;;;;;;;25.33;21.73;;;;;;;-143.90;100.00;65065.84;5134469;27;20395;-85
2023/09/18 00:07:21;;;;;;;26.17;22.52;;;;;;;-143.90;100.00;65065.84;5134919;28;20081;-85
2023/09/18 00:13:09;;;;;;;25.90;21.80;;;;;;;-143.90;100.00;65065.84;5134108;27;20395;-85
2023/09/18 00:15:34;;;;;;;27.37;22.70;;;;;;;-143.90;100.00;65065.84;5133292;28;20507;-84
2023/09/18 00:17:59;;;;;;;28.13;22.37;;;;;;;-143.90;100.00;65065.84;5134273;28;20273;-84
2023/09/18 00:20:26;;;;;;;26.77;23.10;;;;;;;-143.90;100.00;65065.84;5133259;28;20789;-85
2023/09/18 00:22:53;;;;;;;30.08;23.63;;;;;;;-143.90;100.00;65065.84;5134492;28;20023;-84
2023/09/18 00:25:19;;;;;;;28.13;23.98;;;;;;;-143.90;100.00;65065.84;5133924;28;20446;-85
2023/09/18 00:27:44;;;;;;;27.00;22.67;;;;;;;-143.90;100.00;65065.84;5133116;28;20067;-82
2023/09/18 00:30:11;;;;;;;28.55;23.20;;;;;;;-143.90;100.00;65065.84;5133920;28;20291;-83
2023/09/18 00:35:58;;;;;;;25.08;21.83;;;;;;;-143.90;100.00;65065.84;5134149;27;20100;-85
2023/09/18 00:41:49;;;;;;;25.45;22.10;;;;;;;-143.90;100.00;65065.84;5133973;28;20046;-84
2023/09/18 00:44:14;;;;;;;27.40;23.15;;;;;;;-143.90;100.00;65065.84;5134157;28;20046;-84
2023/09/18 00:46:39;;;;;;;26.67;22.63;;;;;;;-143.90;100.00;65065.84;5115681;28;20054;-85
2023/09/18 00:52:27;;;;;;;27.77;21.40;;;;;;;-143.90;100.00;65065.84;5134490;28;20100;-85
2023/09/18 00:58:15;;;;;;;26.33;21.27;;;;;;;-143.90;100.00;65065.84;5136053;27;20084;-86
2023/09/18 01:04:02;;;;;;;25.10;20.70;;;;;;;-143.90;100.00;65065.84;5134218;28;20042;-86
2023/09/18 01:09:49;;;;;;;27.23;20.73;;;;;;;-143.90;100.00;65065.84;5134825;27;20046;-86
2023/09/18 01:12:20;;;;;;;26.35;20.20;;;;;;;-143.90;100.00;65065.84;5132897;27;20035;-86
2023/09/18 01:15:03;;;;;;;24.55;17.48;;;;;;;-143.90;100.00;65065.84;5133562;28;20035;-83
2023/09/18 01:17:38;;;;;;;19.63;17.58;;;;;;;-143.90;100.00;65065.84;5132483;28;20495;-83
2023/09/18 01:23:25;;;;;;;19.05;15.90;;;;;;;-143.90;100.00;65065.84;5132775;27;20073;-85
2023/09/18 01:29:13;;;;;;;24.30;16.30;;;;;;;-143.90;100.00;65065.84;5133590;28;20168;-84
2023/09/18 01:31:38;;;;;;;20.52;15.70;;;;;;;-143.90;100.00;65065.84;5132310;28;20502;-84
2023/09/18 01:34:04;;;;;;;19.73;15.40;;;;;;;-143.90;100.00;65065.84;5132966;28;20091;-83
2023/09/18 01:39:52;;;;;;;18.45;14.65;;;;;;;-143.90;100.00;65065.84;5133219;28;20046;-83
2023/09/18 01:42:18;;;;;;;18.38;14.25;;;;;;;-143.90;100.00;65065.84;5132707;28;20387;-84
2023/09/18 01:44:44;;;;;;;19.73;14.25;;;;;;;-143.90;100.00;65065.84;5131890;28;20039;-84
2023/09/18 01:47:15;;;;;;;22.95;14.35;;;;;;;-143.90;100.00;65065.84;5132728;28;20102;-83
2023/09/18 01:53:03;;;;;;;18.15;13.65;;;;;;;-143.90;100.00;65065.84;5132990;28;20072;-83
2023/09/18 01:55:29;;;;;;;16.17;12.88;;;;;;;-143.90;100.00;65065.84;5114548;28;20023;-83
2023/09/18 02:01:16;;;;;;;17.70;12.68;;;;;;;-143.90;100.00;65065.84;5132521;27;20517;-85
2023/09/18 02:07:03;;;;;;;19.08;11.48;;;;;;;-143.90;100.00;65065.84;5132780;28;20046;-83
2023/09/18 02:12:50;;;;;;;18.27;11.68;;;;;;;-143.90;100.00;65065.84;5134106;27;20049;-83
2023/09/18 02:15:16;;;;;;;14.57;11.00;;;;;;;-143.90;100.00;65065.84;5135367;28;20020;-84
2023/09/18 02:17:41;;;;;;;12.50;10.93;;;;;;;-143.90;100.00;65065.84;5114243;28;20035;-83
2023/09/18 02:23:28;;;;;;;15.38;10.27;;;;;;;-143.90;100.00;65065.84;5132571;27;20088;-84
2023/09/18 02:29:15;;;;;;;12.55;9.73;;;;;;;-143.90;100.00;65065.84;5136289;28;20073;-84
2023/09/18 02:31:41;;;;;;;15.13;10.30;;;;;;;-143.90;100.00;65065.84;5135952;28;20015;-84
2023/09/18 02:34:07;;;;;;;15.00;10.30;;;;;;;-143.90;100.00;65065.84;5136104;28;20038;-85
2023/09/18 02:39:54;;;;;;;16.13;10.82;;;;;;;-143.90;100.00;65065.84;5136118;27;20054;-84
2023/09/18 02:42:19;;;;;;;16.13;9.57;;;;;;;-143.90;100.00;65065.84;5116806;28;20039;-84
2023/09/18 02:44:44;;;;;;;12.83;10.13;;;;;;;-143.90;100.00;65065.84;5135452;28;20039;-84
2023/09/18 02:50:31;;;;;;;13.63;9.60;;;;;;;-143.90;100.00;65065.84;5135456;27;20994;-83
2023/09/18 02:56:18;;;;;;;14.35;9.68;;;;;;;-143.90;100.00;65065.84;5138668;28;20057;-83
2023/09/18 02:58:43;;;;;;;15.45;9.20;;;;;;;-143.90;100.00;65065.84;5139051;28;20019;-82
2023/09/18 03:04:31;;;;;;;15.35;9.80;;;;;;;-143.90;100.00;65065.84;5139461;28;20042;-83
2023/09/18 03:10:19;;;;;;;13.45;8.75;;;;;;;-143.90;100.00;65065.84;5138714;28;20061;-84
2023/09/18 03:16:06;;;;;;;16.80;9.00;;;;;;;-143.90;100.00;65065.84;5137263;28;20053;-84
2023/09/18 03:18:31;;;;;;;16.65;8.75;;;;;;;-143.90;100.00;65065.84;5117216;28;20023;-83
2023/09/18 03:20:57;;;;;;;15.60;9.40;;;;;;;-143.90;100.00;65065.84;5134905;28;20460;-83
2023/09/18 03:23:22;;;;;;;12.20;9.10;;;;;;;-143.90;100.00;65065.84;5135047;28;20023;-83
2023/09/18 03:29:09;;;;;;;14.23;9.02;;;;;;;-143.90;100.00;65065.84;5135003;27;20276;-83
2023/09/18 03:34:56;;;;;;;16.70;9.95;;;;;;;-143.90;100.00;65065.84;5134793;27;20038;-84
2023/09/18 03:40:43;;;;;;;19.13;9.25;;;;;;;-143.90;100.00;65065.84;5134750;28;20294;-84
2023/09/18 03:46:30;;;;;;;17.98;9.38;;;;;;;-143.90;100.00;65065.84;5136286;28;20069;-85
2023/09/18 03:55:43;;;;;;;14.45;9.30;;;;;;;-143.90;100.00;65065.84;5135080;28;20399;-84
2023/09/18 03:58:10;;;;;;;15.00;9.27;;;;;;;-143.90;100.00;65065.84;5134929;28;20093;-84
2023/09/18 04:00:35;;;;;;;14.70;9.25;;;;;;;-143.90;100.00;65065.84;5135445;28;20023;-83
2023/09/18 04:06:24;;;;;;;14.23;9.73;;;;;;;-143.90;100.00;65065.84;5135317;28;20065;-83
2023/09/18 04:08:50;;;;;;;17.55;9.52;;;;;;;-143.90;100.00;65065.84;5116302;28;20118;-83
2023/09/18 04:18:14;;;;;;;14.00;10.05;;;;;;;-143.90;100.00;65065.84;5134598;28;20042;-83
2023/09/18 04:24:01;;;;;;;12.73;9.77;;;;;;;-143.90;100.00;65065.84;5138132;28;20410;-85
2023/09/18 04:33:59;;;;;;;14.32;9.57;;;;;;;-143.90;100.00;65065.84;5150310;28;20026;-81
2023/09/18 04:36:24;;;;;;;14.43;9.48;;;;;;;-143.90;100.00;65065.84;5145016;28;20043;-81
2023/09/18 04:38:50;;;;;;;13.60;9.48;;;;;;;-143.90;100.00;65065.84;5140479;28;20041;-81
2023/09/18 04:41:16;;;;;;;13.55;10.20;;;;;;;-143.90;100.00;65065.84;5138245;28;20043;-81
2023/09/18 04:43:44;;;;;;;13.07;9.48;;;;;;;-143.90;100.00;65065.84;5147910;28;20091;-80
2023/09/18 04:49:31;;;;;;;12.35;9.90;;;;;;;-143.90;100.00;65065.84;5139736;28;20042;-81
2023/09/18 04:55:18;;;;;;;15.90;10.20;;;;;;;-143.90;100.00;65065.84;5134955;28;20319;-82
2023/09/18 05:01:05;;;;;;;13.52;9.13;;;;;;;-143.90;100.00;65065.84;5134631;27;20088;-82
2023/09/18 05:06:52;;;;;;;15.82;11.50;;;;;;;-143.90;100.00;65065.84;5133727;28;20084;-82
2023/09/18 05:12:40;;;;;;;20.58;12.27;;;;;;;-143.90;100.00;65065.84;5133907;27;20280;-82
2023/09/18 05:18:27;;;;;;;19.83;13.25;;;;;;;-143.90;100.00;65065.84;5135156;28;20092;-83
2023/09/18 05:24:14;;;;;;;17.63;11.63;;;;;;;-143.90;100.00;65065.84;5136525;28;20049;-84
2023/09/18 05:30:01;;;;;;;20.00;9.75;;;;;;;-143.90;100.00;65065.84;5133133;28;20780;-83
2023/09/18 05:35:49;;;;;;;10.32;6.22;;;;;;;-143.90;100.00;65065.84;5133533;28;20045;-88
2023/09/18 05:41:36;;;;;;;8.48;6.07;;;;;;;-143.90;100.00;65065.84;5135922;27;20112;-83
2023/09/18 05:47:23;;;;;;;7.72;5.15;;;;;;;-143.90;100.00;65065.84;5133256;28;20417;-83
2023/09/18 05:53:10;;;;;;;7.80;4.93;;;;;;;-143.90;100.00;65065.84;5136448;27;20062;-81
2023/09/18 05:58:58;;;;;;;6.75;4.75;;;;;;;-143.90;100.00;65065.84;5132316;27;20034;-83
2023/09/18 06:04:46;;;;;;;7.32;4.35;;;;;;;-143.90;100.00;65065.84;5135145;28;20788;-81
2023/09/18 06:10:35;;;;;;;13.27;3.60;;;;;;;-143.90;100.00;65065.84;5133430;28;20053;-81
2023/09/18 06:16:22;;;;;;;6.82;3.72;;;;;;;-143.90;100.00;65065.84;5133282;28;20050;-80
2023/09/18 06:22:09;;;;;;;7.75;3.65;;;;;;;-143.90;100.00;65065.84;5132551;27;20073;-80
2023/09/18 06:24:35;;;;;;;8.68;3.20;;;;;;;-143.90;100.00;65065.84;5131239;28;20078;-81
2023/09/18 06:30:22;;;;;;;3.30;3.00;;;;;;;-143.90;100.00;65065.84;5132500;28;20057;-85
2023/09/18 06:36:09;;;;;;;6.78;2.80;;;;;;;-143.90;100.00;65065.84;5131774;27;20506;-82
2023/09/18 06:41:57;;;;;;;4.50;3.10;;;;;;;-143.90;100.00;65065.84;5132833;28;20046;-85
2023/09/18 06:44:23;;;;;;;3.42;2.60;;;;;;;-143.90;100.00;65065.84;5132611;28;20019;-85
2023/09/18 06:50:11;;;;;;;6.03;3.22;;;;;;;-143.90;100.00;65065.84;5132673;28;20042;-82
2023/09/18 06:52:37;;;;;;;6.90;2.92;;;;;;;-143.90;100.00;65065.84;5132310;28;20107;-85
2023/09/18 06:55:02;;;;;;;4.57;2.77;;;;;;;-143.90;100.00;65065.84;5131404;28;20074;-82
2023/09/18 07:00:52;;;;;;;4.53;2.92;;;;;;;-143.90;100.00;65065.84;5131821;27;20084;-84
2023/09/18 07:06:39;;;;;;;6.00;2.63;;;;;;;-143.90;100.00;65065.84;5132464;28;20045;-89
2023/09/18 07:12:26;;;;;;;7.07;3.13;;;;;;;-143.90;100.00;65065.84;5136365;28;20045;-82
2023/09/18 07:14:51;;;;;;;6.45;2.97;;;;;;;-143.90;100.00;65065.84;5134792;28;20043;-82
2023/09/18 07:20:38;;;;;;;7.05;2.75;;;;;;;-143.90;100.00;65065.84;5135591;27;20073;-84
2023/09/18 07:26:25;;;;;;;4.65;2.60;;;;;;;-143.90;100.00;65065.84;5135133;28;20042;-84
2023/09/18 07:32:13;;;;;;;4.43;2.63;;;;;;;-143.90;100.00;65065.84;5135400;27;20437;-81
2023/09/18 07:34:40;;;;;;;5.32;3.13;;;;;;;-143.90;100.00;65065.84;5134719;28;20434;-83
2023/09/18 07:37:05;;;;;;;4.95;2.80;;;;;;;-143.90;100.00;65065.84;5116067;28;20015;-82
2023/09/18 07:39:30;;;;;;;7.07;3.83;;;;;;;-143.90;100.00;65065.84;5115947;28;20194;-83
2023/09/18 07:41:55;;;;;;;6.03;2.63;;;;;;;-143.90;100.00;65065.84;5116353;28;20687;-85
2023/09/18 07:44:21;;;;;;;5.57;2.88;;;;;;;-143.90;100.00;65065.84;5133684;28;20303;-82
2023/09/18 07:50:08;;;;;;;3.72;2.60;;;;;;;-143.90;100.00;65065.84;5135092;27;20046;-81
2023/09/18 07:52:33;;;;;;;6.57;2.80;;;;;;;-143.90;100.00;65065.84;5134474;28;20039;-84
2023/09/18 07:58:21;;;;;;;4.20;2.53;;;;;;;-143.90;100.00;65065.84;5135131;28;20279;-84
2023/09/18 08:07:51;;;;;;;4.28;2.80;;;;;;;-143.90;100.00;65065.84;5134707;28;20038;-84
2023/09/18 08:13:38;;;;;;;3.83;2.40;;;;;;;-143.90;100.00;65065.84;5134187;28;20035;-81
2023/09/18 08:16:06;;;;;;;6.90;3.00;;;;;;;-143.90;100.00;65065.84;5133345;28;20035;-83
2023/09/18 08:21:55;;;;;;;4.88;2.67;;;;;;;-143.90;100.00;65065.84;5133481;27;20189;-82
2023/09/18 08:27:44;;;;;;;3.75;2.42;;;;;;;-143.90;100.00;65065.84;5134193;28;20042;-81
2023/09/18 08:33:31;;;;;;;6.20;2.55;;;;;;;-143.90;100.00;65065.84;5134516;28;20100;-78
2023/09/18 08:39:18;;;;;;;5.15;2.38;;;;;;;-143.90;100.00;65065.84;5134942;28;20791;-82
2023/09/18 08:45:09;;;;;;;4.35;2.25;;;;;;;-143.90;100.00;65065.84;5133663;28;20387;-80
2023/09/18 08:50:56;;;;;;;4.93;2.72;;;;;;;-143.90;100.00;65065.84;5136894;27;20130;-80
2023/09/18 08:53:21;;;;;;;5.97;2.67;;;;;;;-143.90;100.00;65065.84;5134601;28;20062;-81
2023/09/18 08:59:09;;;;;;;4.18;2.50;;;;;;;-143.90;100.00;65065.84;5134779;28;20042;-79
2023/09/18 09:04:57;;;;;;;6.85;2.58;;;;;;;-143.90;100.00;65065.84;5134267;28;20070;-83
2023/09/18 09:10:44;;;;;;;3.80;2.58;;;;;;;-143.90;100.00;65065.84;5138290;28;20053;-84
2023/09/18 09:16:31;;;;;;;6.45;2.47;;;;;;;-143.90;100.00;65065.84;5138199;28;20271;-83
2023/09/18 09:18:56;;;;;;;7.60;2.65;;;;;;;-143.90;100.00;65065.84;5114997;28;20043;-82
2023/09/18 09:24:44;;;;;;;4.72;2.83;;;;;;;-143.90;100.00;65065.84;5138608;27;20088;-81
2023/09/18 09:30:34;;;;;;;5.05;2.83;;;;;;;-143.90;100.00;65065.84;5137133;28;20085;-81
2023/09/18 09:36:21;;;;;;;6.88;3.20;;;;;;;-143.90;100.00;65065.84;5133106;27;20100;-84
2023/09/18 09:42:09;;;;;;;5.35;3.20;;;;;;;-143.90;100.00;65065.84;5134069;28;20583;-84
2023/09/18 09:47:57;;;;;;;7.18;3.35;;;;;;;-143.90;100.00;65065.84;5134651;28;20072;-83
2023/09/18 09:53:47;;;;;;;5.15;3.08;;;;;;;-143.90;100.00;65065.84;5133520;27;20647;-81
2023/09/18 09:59:35;;;;;;;6.47;3.25;;;;;;;-143.90;100.00;65065.84;5133104;28;20031;-85
2023/09/18 10:02:00;;;;;;;6.10;2.88;;;;;;;-143.90;100.00;65065.84;5134580;28;20110;-83
2023/09/18 10:07:47;;;;;;;6.00;3.38;;;;;;;-143.90;100.00;65065.84;5136085;27;20138;-81
2023/09/18 10:13:46;;;;;;;7.25;3.95;;;;;;;-143.90;100.00;65065.84;5133029;28;20054;-83
2023/09/18 10:19:44;;;;;;;6.65;3.28;;;;;;;-143.90;100.00;65065.84;5137391;28;20510;-85
2023/09/18 10:25:32;;;;;;;8.70;3.63;;;;;;;-143.90;100.00;65065.84;5132572;27;20074;-85
2023/09/18 10:31:19;;;;;;;8.05;3.38;;;;;;;-143.90;100.00;65065.84;5134723;28;20070;-83
2023/09/18 10:37:09;;;;;;;4.60;3.30;;;;;;;-143.90;100.00;65065.84;5132354;28;20035;-82
2023/09/18 10:42:58;;;;;;;6.85;3.50;;;;;;;-143.90;100.00;65065.84;5132704;28;20050;-83
2023/09/18 10:45:24;;;;;;;8.48;3.53;;;;;;;-143.90;100.00;65065.84;5133113;27;20034;-84
2023/09/18 10:51:11;;;;;;;8.13;4.63;;;;;;;-143.90;100.00;65065.84;5135830;28;20042;-85
2023/09/18 10:56:58;;;;;;;5.35;4.18;;;;;;;-143.90;100.00;65065.84;5136122;27;20092;-86
2023/09/18 11:03:12;;;;;;;6.60;4.10;;;;;;;-143.90;100.00;65065.84;5136096;28;20061;-85
2023/09/18 11:09:10;;;;;;;10.20;3.90;;;;;;;-143.90;100.00;65065.84;5136050;28;19922;-85
2023/09/18 11:14:58;;;;;;;8.38;4.55;;;;;;;-143.90;100.00;65065.84;5136175;27;20058;-82
2023/09/18 11:21:09;;;;;;;8.48;4.45;;;;;;;-143.90;100.00;65065.84;5135854;28;20066;-82
2023/09/18 11:26:57;;;;;;;6.15;4.50;;;;;;;-143.90;100.00;65065.84;5135911;27;20135;-82
2023/09/18 11:32:55;;;;;;;13.00;4.75;;;;;;;-143.90;100.00;65065.84;5135854;27;20053;-83
2023/09/18 11:39:25;;;;;;;9.95;4.70;;;;;;;-143.90;100.00;65065.84;5135378;28;20088;-86
2023/09/18 11:45:43;;;;;;;6.43;4.13;;;;;;;-143.90;100.00;65065.84;5051168;28;20084;-82
2023/09/18 11:51:30;;;;;;;8.38;4.30;;;;;;;-143.90;100.00;65065.84;5051612;28;20068;-83
2023/09/18 11:54:06;;;;;;;8.67;4.37;;;;;;;-143.90;100.00;65065.84;5122912;28;20042;-81
2023/09/18 11:56:40;;;;;;;9.98;4.40;;;;;;;-143.90;100.00;65065.84;5132488;27;20292;-83
2023/09/18 12:02:36;;;;;;;6.32;4.45;;;;;;;-143.90;100.00;65065.84;5135094;27;20105;-82
2023/09/18 12:09:03;;;;;;;5.32;4.03;;;;;;;-143.90;100.00;65065.84;5135204;28;20454;-83
2023/09/18 12:14:52;;;;;;;8.60;4.05;;;;;;;-143.90;100.00;65065.84;5134814;28;20130;-85
2023/09/18 12:20:45;;;;;;;5.93;4.38;;;;;;;-143.90;100.00;65065.84;5134349;28;20049;-86
2023/09/18 12:26:32;;;;;;;5.47;3.50;;;;;;;-143.90;100.00;65065.84;5136589;28;20169;-85
2023/09/18 12:32:19;;;;;;;5.80;3.65;;;;;;;-143.90;100.00;65065.84;5133958;28;20038;-87
2023/09/18 12:44:54;;;;;;;5.03;3.83;;;;;;;-143.90;100.00;65065.84;5133687;27;20042;-83
2023/09/18 12:50:42;;;;;;;5.85;3.63;;;;;;;-143.90;100.00;65065.84;5134034;28;20081;-82
2023/09/18 12:56:32;;;;;;;4.88;3.08;;;;;;;-143.90;100.00;65065.84;5133300;27;20061;-84
2023/09/18 13:02:19;;;;;;;6.45;3.13;;;;;;;-143.90;100.00;65065.84;5133573;28;20092;-82
2023/09/18 13:08:07;;;;;;;7.10;3.80;;;;;;;-143.90;100.00;65065.84;5133274;27;20453;-83
2023/09/18 13:13:58;;;;;;;7.10;3.72;;;;;;;-143.90;100.00;65065.84;5133489;28;20038;-83
2023/09/18 13:19:47;;;;;;;5.75;3.50;;;;;;;-143.90;100.00;65065.84;5133391;28;20050;-84
2023/09/18 13:22:22;;;;;;;4.07;3.17;;;;;;;-143.90;100.00;65065.84;5132129;28;20043;-83
2023/09/18 13:31:56;;;;;;;4.95;2.97;;;;;;;-143.90;100.00;65065.84;5132991;28;20088;-82
2023/09/18 13:34:22;;;;;;;5.35;3.58;;;;;;;-143.90;100.00;65065.84;5113967;28;20038;-82
2023/09/18 13:40:11;;;;;;;4.55;2.90;;;;;;;-143.90;100.00;65065.84;5132912;28;20054;-84
2023/09/18 13:45:59;;;;;;;8.55;2.60;;;;;;;-143.90;100.00;65065.84;5133479;27;20042;-80
2023/09/18 13:51:45;;;;;;;6.25;3.17;;;;;;;-143.90;100.00;65065.84;5134022;28;20050;-80
2023/09/18 13:57:33;;;;;;;7.07;3.28;;;;;;;-143.90;100.00;65065.84;5133008;28;20050;-84
2023/09/18 14:03:20;;;;;;;3.40;3.00;;;;;;;-143.90;100.00;65065.84;5132873;28;20125;-80
2023/09/18 14:09:07;;;;;;;7.03;3.70;;;;;;;-143.90;100.00;65065.84;5132779;28;20127;-83
2023/09/18 14:14:54;;;;;;;7.45;3.30;;;;;;;-143.90;100.00;65065.84;5132605;28;20275;-85
2023/09/18 14:20:41;;;;;;;5.05;2.92;;;;;;;-143.90;100.00;65065.84;5131523;27;20311;-83
2023/09/18 14:23:07;;;;;;;6.07;2.80;;;;;;;-143.90;100.00;65065.84;5113200;28;20039;-81
2023/09/18 14:28:54;;;;;;;6.50;2.70;;;;;;;-143.90;100.00;65065.84;5135342;27;20171;-81
2023/09/18 14:34:41;;;;;;;4.75;3.13;;;;;;;-143.90;100.00;65065.84;5132250;28;20089;-79
2023/09/18 14:40:28;;;;;;;4.90;2.97;;;;;;;-143.90;100.00;65065.84;5131694;28;20428;-79
2023/09/18 14:46:15;;;;;;;6.82;2.78;;;;;;;-143.90;100.00;65065.84;5131978;27;20046;-79
2023/09/18 14:52:03;;;;;;;4.18;2.40;;;;;;;-143.90;100.00;65065.84;5132117;28;20368;-80
2023/09/18 14:57:50;;;;;;;4.13;2.70;;;;;;;-143.90;100.00;65065.84;5132230;28;20043;-78
2023/09/18 15:03:37;;;;;;;5.50;2.70;;;;;;;-143.90;100.00;65065.84;5131637;28;20030;-79
2023/09/18 15:06:03;;;;;;;4.93;3.17;;;;;;;-143.90;100.00;65065.84;5130863;28;20047;-77
2023/09/18 15:11:50;;;;;;;4.50;2.72;;;;;;;-143.90;100.00;65065.84;5131089;28;20046;-80
2023/09/18 15:18:01;;;;;;;5.43;2.08;;;;;;;-143.90;100.00;65065.84;5132744;27;20302;-74
2023/09/18 15:23:50;;;;;;;6.35;1.65;;;;;;;-143.90;100.00;65065.84;5131858;28;20041;-79
2023/09/18 15:29:40;;;;;;;4.97;2.15;;;;;;;-143.90;100.00;65065.84;5131629;27;20066;-78
2023/09/18 15:35:31;;;;;;;2.95;1.80;;;;;;;-143.90;100.00;65065.84;5135252;28;20125;-78
2023/09/18 15:41:22;;;;;;;5.20;2.15;;;;;;;-143.90;100.00;65065.84;5135421;28;20054;-85
2023/09/18 15:47:09;;;;;;;5.57;2.45;;;;;;;-143.90;100.00;65065.84;5135111;28;20046;-81
2023/09/18 15:53:17;;;;;;;5.05;1.88;;;;;;;-143.90;100.00;65065.84;5134469;28;20330;-86
2023/09/18 15:59:11;;;;;;;7.50;2.55;;;;;;;-143.90;100.00;65065.84;5134882;27;20088;-84
2023/09/18 16:04:39;;;;;;;4.47;2.50;;;;;;;-143.90;100.00;65065.84;5134641;28;19922;-84
2023/09/18 16:10:27;;;;;;;5.00;2.72;;;;;;;-143.90;100.00;65065.84;5137594;28;20724;-82
2023/09/18 16:16:14;;;;;;;5.75;2.88;;;;;;;-143.90;100.00;65065.84;5135064;28;20039;-81
2023/09/18 16:22:01;;;;;;;4.05;2.85;;;;;;;-143.90;100.00;65065.84;5134392;28;20054;-80
2023/09/18 16:27:48;;;;;;;6.40;3.10;;;;;;;-143.90;100.00;65065.84;5134668;27;20409;-82
2023/09/18 16:33:36;;;;;;;4.97;3.00;;;;;;;-143.90;100.00;65065.84;5134395;28;20042;-80
2023/09/18 16:39:25;;;;;;;3.90;2.50;;;;;;;-143.90;100.00;65065.84;5134260;27;20532;-84
2023/09/18 16:45:13;;;;;;;4.68;2.65;;;;;;;-143.90;100.00;65065.84;5133812;28;20038;-85
2023/09/18 16:51:03;;;;;;;7.35;3.08;;;;;;;-143.90;100.00;65065.84;5134303;28;20437;-83
2023/09/18 16:56:51;;;;;;;5.00;3.10;;;;;;;-143.90;100.00;65065.84;5134280;27;20038;-82
2023/09/18 17:02:38;;;;;;;4.70;3.10;;;;;;;-143.90;100.00;65065.84;5133750;28;20089;-81
2023/09/18 17:08:26;;;;;;;5.32;3.22;;;;;;;-143.90;100.00;65065.84;5133712;27;20046;-80
2023/09/18 17:14:16;;;;;;;6.65;3.30;;;;;;;-143.90;100.00;65065.84;5133896;28;20077;-80
2023/09/18 17:20:04;;;;;;;6.93;3.20;;;;;;;-143.90;100.00;65065.84;5133538;28;20534;-82
2023/09/18 17:25:51;;;;;;;5.55;3.35;;;;;;;-143.90;100.00;65065.84;5133137;28;20497;-83
2023/09/18 17:31:38;;;;;;;4.90;3.13;;;;;;;-143.90;100.00;65065.84;5133564;28;20038;-80
2023/09/18 17:37:26;;;;;;;8.18;3.55;;;;;;;-143.90;100.00;65065.84;5132776;27;20272;-82
2023/09/18 17:43:15;;;;;;;6.10;3.55;;;;;;;-143.90;100.00;65065.84;5133095;28;20066;-80
2023/09/18 17:49:02;;;;;;;6.00;3.38;;;;;;;-143.90;100.00;65065.84;5133777;27;20050;-79
2023/09/18 17:54:51;;;;;;;7.22;3.42;;;;;;;-143.90;100.00;65065.84;5131703;27;20039;-81
2023/09/18 18:00:38;;;;;;;4.68;3.47;;;;;;;-143.90;100.00;65065.84;5131637;28;20088;-80
2023/09/18 18:06:24;;;;;;;7.43;3.58;;;;;;;-143.90;100.00;65065.84;5132437;28;20334;-81
2023/09/18 18:12:11;;;;;;;4.72;3.25;;;;;;;-143.90;100.00;65065.84;5132457;28;20329;-81
2023/09/18 18:17:59;;;;;;;5.25;3.38;;;;;;;-143.90;100.00;65065.84;5132478;28;20264;-80
2023/09/18 18:23:46;;;;;;;6.47;3.53;;;;;;;-143.90;100.00;65065.84;5132347;28;20038;-80
2023/09/18 18:29:33;;;;;;;4.03;2.90;;;;;;;-143.90;100.00;65065.84;5132131;27;20822;-78
2023/09/18 18:35:23;;;;;;;4.78;3.13;;;;;;;-143.90;100.00;65065.84;5133006;28;20144;-80
2023/09/18 18:41:10;;;;;;;8.98;3.55;;;;;;;-143.90;100.00;65065.84;5133019;28;20100;-78
2023/09/18 18:47:00;;;;;;;5.03;2.83;;;;;;;-143.90;100.00;65065.84;5132833;28;20068;-80
2023/09/18 18:52:47;;;;;;;5.68;3.28;;;;;;;-143.90;100.00;65065.84;5132124;28;20541;-78
2023/09/18 18:58:34;;;;;;;4.95;3.20;;;;;;;-143.90;100.00;65065.84;5132433;27;20361;-78
2023/09/18 19:04:22;;;;;;;5.35;3.10;;;;;;;-143.90;100.00;65065.84;5132495;28;20034;-77
2023/09/18 19:10:10;;;;;;;9.45;3.60;;;;;;;-143.90;100.00;65065.84;5136423;27;20058;-78
2023/09/18 19:15:58;;;;;;;5.10;2.63;;;;;;;-143.90;100.00;65065.84;5136080;28;20042;-79
2023/09/18 19:21:45;;;;;;;7.65;3.33;;;;;;;-143.90;100.00;65065.84;5136254;28;20101;-80
2023/09/18 19:27:39;;;;;;;5.82;3.22;;;;;;;-143.90;100.00;65065.84;5136086;28;20088;-79
2023/09/18 19:33:32;;;;;;;5.65;2.45;;;;;;;-143.90;100.00;65065.84;5135783;28;20073;-78
2023/09/18 19:39:21;;;;;;;11.50;3.10;;;;;;;-143.90;100.00;65065.84;5138504;27;20083;-79
2023/09/18 19:45:09;;;;;;;4.25;2.80;;;;;;;-143.90;100.00;65065.84;5135325;28;20062;-78
2023/09/18 19:50:59;;;;;;;8.52;3.13;;;;;;;-143.90;100.00;65065.84;5135493;28;20061;-80
2023/09/18 19:56:46;;;;;;;7.30;3.25;;;;;;;-143.90;100.00;65065.84;5135554;28;20058;-79
2023/09/18 20:02:36;;;;;;;5.95;3.20;;;;;;;-143.90;100.00;65065.84;5135305;28;20096;-79
2023/09/18 20:08:23;;;;;;;6.28;3.38;;;;;;;-143.90;100.00;65065.84;5135351;27;20517;-80
2023/09/18 20:14:10;;;;;;;9.50;3.30;;;;;;;-143.90;100.00;65065.84;5135031;28;20782;-80
2023/09/18 20:19:57;;;;;;;7.97;3.67;;;;;;;-143.90;100.00;65065.84;5134746;27;20103;-80
2023/09/18 20:25:45;;;;;;;7.20;3.50;;;;;;;-143.90;100.00;65065.84;5134085;28;20365;-79
2023/09/18 20:31:32;;;;;;;4.30;3.17;;;;;;;-143.90;100.00;65065.84;5134745;28;20474;-79
2023/09/18 20:37:22;;;;;;;5.82;2.80;;;;;;;-143.90;100.00;65065.84;5134152;28;20283;-82
2023/09/18 20:43:10;;;;;;;8.55;2.80;;;;;;;-143.90;100.00;65065.84;5134116;28;20710;-81
2023/09/18 20:48:58;;;;;;;6.82;2.60;;;;;;;-143.90;100.00;65065.84;5133717;27;20042;-79
2023/09/18 20:54:46;;;;;;;11.13;2.75;;;;;;;-143.90;100.00;65065.84;5133897;28;20116;-80
2023/09/18 21:00:34;;;;;;;14.45;4.22;;;;;;;-143.90;100.00;65065.84;5133762;28;20081;-78
2023/09/18 21:06:22;;;;;;;14.63;3.53;;;;;;;-143.90;100.00;65065.84;5133601;28;20046;-82
2023/09/18 21:12:08;;;;;;;10.82;3.13;;;;;;;-143.90;100.00;65065.84;5133716;28;20486;-80
2023/09/18 21:17:56;;;;;;;14.18;3.22;;;;;;;-143.90;100.00;65065.84;5133517;27;20321;-85
2023/09/18 21:23:43;;;;;;;10.35;3.33;;;;;;;-143.90;100.00;65065.84;5133525;28;20136;-79
2023/09/18 21:29:30;;;;;;;9.30;2.88;;;;;;;-143.90;100.00;65065.84;5133212;27;20046;-85
2023/09/18 21:35:17;;;;;;;10.18;3.15;;;;;;;-143.90;100.00;65065.84;5133143;28;20366;-85
2023/09/18 21:41:04;;;;;;;13.50;3.67;;;;;;;-143.90;100.00;65065.84;5133280;28;20201;-83
2023/09/18 21:46:51;;;;;;;14.25;3.88;;;;;;;-143.90;100.00;65065.84;5133203;28;20049;-81
2023/09/18 21:52:39;;;;;;;13.80;4.13;;;;;;;-143.90;100.00;65065.84;5132654;28;20271;-84
2023/09/18 21:58:26;;;;;;;13.18;3.78;;;;;;;-143.90;100.00;65065.84;5132723;27;20601;-81
2023/09/18 22:04:17;;;;;;;13.63;3.22;;;;;;;-143.90;100.00;65065.84;5132363;28;20042;-82
2023/09/18 22:10:04;;;;;;;17.30;5.05;;;;;;;-143.90;100.00;65065.84;5132286;27;20075;-81
2023/09/18 22:15:51;;;;;;;14.10;3.47;;;;;;;-143.90;100.00;65065.84;5132808;28;20066;-83
2023/09/18 22:21:38;;;;;;;17.95;4.25;;;;;;;-143.90;100.00;65065.84;5132766;28;20042;-83
2023/09/18 22:27:25;;;;;;;14.80;3.10;;;;;;;-143.90;100.00;65065.84;5132826;28;20556;-82
2023/09/18 22:29:53;;;;;;;11.00;3.37;;;;;;;-143.90;100.00;65065.84;5132225;28;20027;-82
2023/09/18 22:35:39;;;;;;;14.27;3.63;;;;;;;-143.90;100.00;65065.84;5132726;28;20046;-85
2023/09/18 22:41:28;;;;;;;16.63;4.03;;;;;;;-143.90;100.00;65065.84;5133566;27;20275;-82
2023/09/18 22:47:53;;;;;;;12.68;3.33;;;;;;;-143.90;100.00;65065.84;5135874;28;20046;-82
2023/09/18 22:53:40;;;;;;;12.82;4.28;;;;;;;-143.90;100.00;65065.84;5135956;28;20046;-81
2023/09/18 22:59:29;;;;;;;18.60;4.10;;;;;;;-143.90;100.00;65065.84;5135873;27;20518;-81
2023/09/18 23:05:18;;;;;;;16.30;4.53;;;;;;;-143.90;100.00;65065.84;5135735;28;20096;-81
2023/09/18 23:11:05;;;;;;;13.65;3.88;;;;;;;-143.90;100.00;65065.84;5135831;27;20054;-80
2023/09/18 23:17:03;;;;;;;15.55;4.00;;;;;;;-143.90;100.00;65065.84;5135170;28;20296;-79
2023/09/18 23:22:55;;;;;;;14.68;3.30;;;;;;;-143.90;100.00;65065.84;5134513;28;20069;-81